Time;durP1;ratioP1;P1;durP2;ratioP2;P2;SDS_P1;SDS_P2;PMS_P1;PMS_P2;Temp;Humidity;BMP_temperature;BMP_pressure;BME280_temperature;BME280_humidity;BME280_pressure;Samples;Min_cycle;Max_cycle;Signal;HPM_P1;HPM_P2
2022/01/12 00:02:04;;;;;;;;;;;2.10;99.90;;;;;;5060275;28;19916;-59
2022/01/12 00:04:29;;;;;;;;;;;2.30;99.90;;;;;;5059508;28;19982;-60
2022/01/12 00:06:55;;;;;;;;;;;2.20;99.90;;;;;;5059222;28;19973;-59
2022/01/12 00:09:22;;;;;;;;;;;;;;;;;;5058332;28;20336;-59
2022/01/12 00:11:47;;;;;;;;;;;;;;;;;;5056787;28;19916;-60
2022/01/12 00:14:13;;;;;;;;;;;;;;;;;;5047202;28;20017;-59
2022/01/12 00:16:46;;;;;;;;;;;;;;;;;;5061174;28;20377;-60
2022/01/12 00:19:12;;;;;;;;;;;;;;;;;;5060310;28;19923;-59
2022/01/12 00:21:37;;;;;;;;;;;;;;;;;;5058743;28;19912;-59
2022/01/12 00:24:03;;;;;;;;;;;;;;;;;;5045910;28;20018;-58
2022/01/12 00:34:28;;;;;;;;;;;;;;;;;;5009749;28;19955;-60
2022/01/12 00:36:54;;;;;;;;;;;;;;;;;;5053994;28;19970;-60
2022/01/12 00:39:20;;;;;;;;;;;;;;;;;;5060557;28;19923;-58
2022/01/12 00:41:47;;;;;;;;;;;;;;;;;;5058902;28;19923;-60
2022/01/12 00:44:22;;;;;;;;;;;;;;;;;;5051744;28;20364;-60
2022/01/12 00:46:48;;;;;;;;;;;;;;;;;;5058733;28;19981;-59
2022/01/12 00:49:14;;;;;;;;;;;;;;;;;;5052198;28;20488;-58
2022/01/12 00:51:39;;;;;;;;;;;;;;;;;;5061875;28;20010;-58
2022/01/12 00:54:06;;;;;;;;;;;;;;;;;;5049168;28;19995;-59
2022/01/12 00:56:32;;;;;;;;;;;;;;;;;;5056502;28;20214;-60
2022/01/12 00:58:58;;;;;;;;;;;;;;;;;;5059230;28;19920;-59
2022/01/12 01:01:24;;;;;;;;;;;;;;;;;;5060021;28;19965;-59
2022/01/12 01:03:50;;;;;;;;;;;;;;;;;;5053271;28;20398;-60
2022/01/12 01:06:16;;;;;;;;;;;;;;;;;;5057653;28;20200;-58
2022/01/12 01:08:43;;;;;;;;;;;;;;;;;;5041882;28;19913;-59
2022/01/12 01:11:09;;;;;;;;;;;;;;;;;;5059752;28;19919;-60
2022/01/12 01:13:43;;;;;;;;;;;;;;;;;;5057547;28;19913;-59
2022/01/12 01:16:20;;;;;;;;;;;;;;;;;;5060128;28;19913;-60
2022/01/12 01:25:29;;;;;;;;;;;;;;;;;;5052107;28;19924;-60
2022/01/12 01:27:16;;;;;;;;;;;;;;;;;;5053101;28;20434;-60
2022/01/12 01:29:42;;;;;;;;;;;;;;;;;;5053211;28;20293;-59
2022/01/12 01:32:09;;;;;;;;;;;;;;;;;;5056799;28;19912;-60
2022/01/12 01:34:42;;;;;;;;;;;;;;;;;;5060430;28;19927;-59
2022/01/12 01:37:08;;;;;;;;;;;;;;;;;;5055974;28;19917;-59
2022/01/12 01:39:34;;;;;;;;;;;;;;;;;;5050649;28;20327;-59
2022/01/12 01:42:03;;;;;;;;;;;;;;;;;;5042480;28;20007;-60
2022/01/12 01:55:09;;;;;;;;;;;;;;;;;;5059614;28;19920;-59
2022/01/12 01:57:35;;;;;;;;;;;;;;;;;;5050499;28;19913;-59
2022/01/12 02:00:01;;;;;;;;;;;;;;;;;;5060253;28;19963;-58
2022/01/12 02:02:27;;;;;;;;;;;;;;;;;;5054340;28;20011;-58
2022/01/12 02:04:53;;;;;;;;;;;;;;;;;;5056904;28;21497;-60
2022/01/12 02:07:19;;;;;;;;;;;;;;;;;;5057893;28;19912;-59
2022/01/12 02:09:44;;;;;;;;;;;;;;;;;;5054216;28;20425;-59
2022/01/12 02:12:12;;;;;;;;;;;;;;;;;;5051488;28;19909;-59
2022/01/12 02:14:38;;;;;;;;;;;;;;;;;;5058730;28;19915;-59
2022/01/12 02:17:10;;;;;;;;;;;;;;;;;;5056429;28;20240;-58
2022/01/12 02:35:55;;;;;;;;;;;;;;;;;;5056796;28;20335;-60
2022/01/12 02:41:06;;;;;;;;;;;;;;;;;;5057133;28;19919;-60
2022/01/12 02:50:41;;;;;;;;;;;;;;;;;;5052913;28;20031;-59
2022/01/12 02:51:33;;;;;;;;;;;;;;;;;;5057767;28;20021;-60
2022/01/12 02:53:59;;;;;;;;;;;;;;;;;;5057494;28;20285;-58
2022/01/12 02:56:26;;;;;;;;;;;;;;;;;;5058463;28;19917;-60
2022/01/12 02:58:52;;;;;;;;;;;;;;;;;;5055307;28;20391;-59
2022/01/12 03:03:55;;;;;;;;;;;2.60;99.90;;;;;;5058347;28;19964;-59
2022/01/12 03:06:25;;;;;;;;;;;2.60;99.90;;;;;;5056557;28;20011;-59
2022/01/12 03:08:51;;;;;;;;;;;2.40;99.90;;;;;;5049465;28;19915;-59
2022/01/12 03:11:17;;;;;;;;;;;2.60;99.90;;;;;;5056960;28;20521;-59
2022/01/12 03:13:43;;;;;;;;;;;2.50;99.90;;;;;;5053412;28;19943;-59
2022/01/12 03:16:17;;;;;;;;;;;2.20;99.90;;;;;;5058014;28;19908;-58
2022/01/12 03:18:43;;;;;;;;;;;2.10;99.90;;;;;;5052459;28;20379;-59
2022/01/12 03:21:09;;;;;;;;;;;2.10;99.90;;;;;;5040182;28;19909;-60
2022/01/12 03:23:35;;;;;;;;;;;2.20;99.90;;;;;;5053134;28;20381;-58
2022/01/12 03:26:02;;;;;;;;;;;2.30;99.90;;;;;;5056459;28;19985;-58
2022/01/12 03:28:27;;;;;;;;;;;2.20;99.90;;;;;;5053790;28;19920;-58
2022/01/12 03:38:41;;;;;;;;;;;2.30;99.90;;;;;;5054867;28;19978;-59
2022/01/12 03:41:06;;;;;;;;;;;2.30;99.90;;;;;;5058269;28;20423;-59
2022/01/12 03:43:32;;;;;;;;;;;2.40;99.90;;;;;;5056087;28;19919;-58
2022/01/12 03:45:57;;;;;;;;;;;2.40;99.90;;;;;;5061429;28;19916;-59
2022/01/12 03:48:22;;;;;;;;;;;2.50;99.90;;;;;;5058609;28;19913;-59
2022/01/12 03:50:48;;;;;;;;;;;2.40;99.90;;;;;;5039968;28;19909;-58
2022/01/12 03:53:14;;;;;;;;;;;2.60;99.90;;;;;;5059408;28;20008;-59
2022/01/12 03:55:40;;;;;;;;;;;2.50;99.90;;;;;;5057029;28;19917;-58
2022/01/12 03:58:06;;;;;;;;;;;2.60;99.90;;;;;;5054946;28;19913;-59
2022/01/12 04:00:31;;;;;;;;;;;2.50;99.90;;;;;;5055493;28;19966;-59
2022/01/12 04:02:57;;;;;;;;;;;2.60;99.90;;;;;;5058859;28;19912;-58
2022/01/12 04:05:39;;;;;;;;;;;2.70;99.90;;;;;;5061913;28;19909;-60
2022/01/12 04:08:22;;;;;;;;;;;2.50;99.90;;;;;;5053249;28;19963;-58
2022/01/12 04:10:51;;;;;;;;;;;2.50;99.90;;;;;;5057965;28;19913;-58
2022/01/12 04:13:17;;;;;;;;;;;2.50;99.90;;;;;;5044243;28;19909;-59
2022/01/12 04:15:44;;;;;;;;;;;2.50;99.90;;;;;;5062180;28;20003;-58
2022/01/12 04:18:09;;;;;;;;;;;2.50;99.90;;;;;;5061864;28;19912;-58
2022/01/12 04:20:38;;;;;;;;;;;2.60;99.90;;;;;;5061627;28;19919;-59
2022/01/12 04:23:19;;;;;;;;;;;2.60;99.90;;;;;;5060803;28;19935;-59
2022/01/12 04:25:45;;;;;;;;;;;2.50;99.90;;;;;;5057213;28;20190;-59
2022/01/12 04:28:11;;;;;;;;;;;2.50;99.90;;;;;;5061351;28;19913;-60
2022/01/12 04:30:36;;;;;;;;;;;2.80;99.90;;;;;;5057722;28;19923;-58
2022/01/12 04:33:02;;;;;;;;;;;2.80;99.90;;;;;;5061273;28;19912;-59
2022/01/12 04:35:32;;;;;;;;;;;2.80;99.90;;;;;;5059530;28;20840;-60
2022/01/12 04:37:58;;;;;;;;;;;2.70;99.90;;;;;;5051779;28;19909;-60
2022/01/12 04:40:24;;;;;;;;;;;2.90;99.90;;;;;;5039502;28;20256;-60
2022/01/12 04:42:49;;;;;;;;;;;2.70;99.90;;;;;;5058408;28;19948;-59
2022/01/12 04:45:32;;;;;;;;;;;2.60;99.90;;;;;;5056344;28;19958;-59
2022/01/12 04:48:07;;;;;;;;;;;2.60;99.90;;;;;;5060893;28;19912;-60
2022/01/12 04:50:35;;;;;;;;;;;2.70;99.90;;;;;;5040208;28;20371;-60
2022/01/12 04:53:01;;;;;;;;;;;2.60;99.90;;;;;;5060981;28;19908;-60
2022/01/12 04:55:27;;;;;;;;;;;2.60;99.90;;;;;;5056018;28;19919;-61
2022/01/12 04:57:52;;;;;;;;;;;2.70;99.90;;;;;;5049370;28;19960;-59
2022/01/12 05:00:18;;;;;;;;;;;2.60;99.90;;;;;;5064397;28;19985;-60
2022/01/12 05:13:42;;;;;;;;;;;2.70;99.90;;;;;;5052362;28;19927;-61
2022/01/12 05:16:10;;;;;;;;;;;2.70;99.90;;;;;;5058928;28;20007;-60
2022/01/12 05:18:36;;;;;;;;;;;2.60;99.90;;;;;;5039290;28;19966;-60
2022/01/12 05:21:02;;;;;;;;;;;2.70;99.90;;;;;;5063077;28;19920;-60
2022/01/12 05:23:27;;;;;;;;;;;2.70;99.90;;;;;;5060733;28;20031;-60
2022/01/12 05:25:53;;;;;;;;;;;2.90;99.90;;;;;;5060237;28;20521;-61
2022/01/12 05:28:19;;;;;;;;;;;3.00;99.90;;;;;;5055042;28;19916;-60
2022/01/12 05:30:45;;;;;;;;;;;3.00;99.90;;;;;;5058607;28;20388;-60
2022/01/12 05:33:11;;;;;;;;;;;2.90;99.90;;;;;;5060022;28;19950;-61
2022/01/12 05:35:36;;;;;;;;;;;2.80;99.90;;;;;;5060311;28;20589;-60
2022/01/12 05:38:02;;;;;;;;;;;2.80;99.90;;;;;;5060766;28;19935;-61
2022/01/12 05:40:28;;;;;;;;;;;2.80;99.90;;;;;;5057960;28;19916;-60
2022/01/12 05:42:58;;;;;;;;;;;2.90;99.90;;;;;;5056810;28;21263;-59
2022/01/12 05:45:24;;;;;;;;;;;2.80;99.90;;;;;;5060001;28;20359;-61
2022/01/12 05:50:16;;;;;;;;;;;3.00;99.90;;;;;;5059926;28;19912;-59
2022/01/12 05:52:41;;;;;;;;;;;3.00;99.90;;;;;;5056980;28;19917;-60
2022/01/12 05:55:08;;;;;;;;;;;3.00;99.90;;;;;;5059803;28;19915;-60
2022/01/12 05:57:34;;;;;;;;;;;2.90;99.90;;;;;;5055569;28;19916;-61
2022/01/12 06:00:00;;;;;;;;;;;3.00;99.90;;;;;;5060151;28;19920;-61
2022/01/12 06:02:26;;;;;;;;;;;3.00;99.90;;;;;;5058722;28;20264;-61
2022/01/12 06:04:51;;;;;;;;;;;3.00;99.90;;;;;;5060691;28;19912;-60
2022/01/12 06:07:17;;;;;;;;;;;2.80;99.90;;;;;;5040785;28;20423;-60
2022/01/12 06:09:42;;;;;;;;;;;2.80;99.90;;;;;;5059745;28;19909;-61
2022/01/12 06:12:08;;;;;;;;;;;2.70;99.90;;;;;;5057652;28;20590;-60
2022/01/12 06:14:34;;;;;;;;;;;2.70;99.90;;;;;;5059426;28;19916;-59
2022/01/12 06:16:59;;;;;;;;;;;2.60;99.90;;;;;;5057592;28;19919;-61
2022/01/12 06:19:25;;;;;;;;;;;2.70;99.90;;;;;;5055831;28;20359;-60
2022/01/12 06:21:50;;;;;;;;;;;2.70;99.90;;;;;;5059054;28;19923;-59
2022/01/12 06:24:16;;;;;;;;;;;2.70;99.90;;;;;;5046881;28;19920;-60
2022/01/12 06:26:43;;;;;;;;;;;2.60;99.90;;;;;;5057991;28;19946;-59
2022/01/12 06:31:34;;;;;;;;;;;2.90;99.90;;;;;;5056881;28;19966;-59
2022/01/12 06:34:00;;;;;;;;;;;2.90;99.90;;;;;;5059903;28;19926;-60
2022/01/12 06:36:26;;;;;;;;;;;2.90;99.90;;;;;;5058648;28;20308;-59
2022/01/12 06:38:51;;;;;;;;;;;3.00;99.90;;;;;;5054485;28;19917;-60
2022/01/12 06:41:18;;;;;;;;;;;3.20;99.90;;;;;;5058579;28;19913;-59
2022/01/12 06:43:44;;;;;;;;;;;3.20;99.90;;;;;;5058687;28;20420;-60
2022/01/12 06:46:10;;;;;;;;;;;3.20;99.90;;;;;;5060448;28;20013;-60
2022/01/12 06:48:35;;;;;;;;;;;3.20;99.90;;;;;;5055754;28;19908;-60
2022/01/12 06:51:02;;;;;;;;;;;2.90;99.90;;;;;;5059438;28;19995;-59
2022/01/12 06:53:27;;;;;;;;;;;2.70;99.90;;;;;;5056731;28;19916;-60
2022/01/12 06:55:53;;;;;;;;;;;2.90;99.90;;;;;;5056721;28;19993;-61
2022/01/12 06:58:19;;;;;;;;;;;2.80;99.90;;;;;;5061596;28;20037;-59
2022/01/12 07:00:44;;;;;;;;;;;2.70;99.90;;;;;;5057987;28;20360;-60
2022/01/12 07:03:09;;;;;;;;;;;2.80;99.90;;;;;;5056140;28;19913;-60
2022/01/12 07:05:35;;;;;;;;;;;3.00;99.90;;;;;;5043632;28;19946;-61
2022/01/12 07:08:00;;;;;;;;;;;2.90;99.90;;;;;;5056641;28;20426;-60
2022/01/12 07:10:26;;;;;;;;;;;3.00;99.90;;;;;;5060449;28;20019;-60
2022/01/12 07:12:52;;;;;;;;;;;3.00;99.90;;;;;;5056379;28;19913;-60
2022/01/12 07:15:17;;;;;;;;;;;3.30;99.90;;;;;;5055039;28;19920;-59
2022/01/12 07:17:43;;;;;;;;;;;3.20;99.90;;;;;;5036876;28;19923;-60
2022/01/12 07:20:08;;;;;;;;;;;3.20;99.90;;;;;;5057120;28;19960;-60
2022/01/12 07:22:34;;;;;;;;;;;3.00;99.90;;;;;;5061104;28;19912;-60
2022/01/12 07:24:59;;;;;;;;;;;3.00;99.90;;;;;;5057712;28;19913;-60
2022/01/12 07:27:25;;;;;;;;;;;3.30;99.90;;;;;;5040605;28;20000;-61
2022/01/12 07:29:50;;;;;;;;;;;3.10;99.90;;;;;;5063761;28;19913;-60
2022/01/12 07:32:16;;;;;;;;;;;3.20;99.90;;;;;;5057753;28;20011;-59
2022/01/12 07:34:41;;;;;;;;;;;3.10;99.90;;;;;;5061257;28;20023;-60
2022/01/12 07:37:07;;;;;;;;;;;3.10;99.90;;;;;;5063822;28;19917;-59
2022/01/12 07:39:32;;;;;;;;;;;3.00;99.90;;;;;;5044324;28;19952;-59
2022/01/12 07:41:58;;;;;;;;;;;3.00;99.90;;;;;;5055622;28;19921;-60
2022/01/12 07:44:23;;;;;;;;;;;3.20;99.90;;;;;;5057552;28;19920;-60
2022/01/12 07:46:49;;;;;;;;;;;3.30;99.90;;;;;;5059114;28;20007;-60
2022/01/12 07:49:15;;;;;;;;;;;3.40;99.90;;;;;;5061674;28;19927;-60
2022/01/12 07:51:40;;;;;;;;;;;3.40;99.90;;;;;;5060122;28;20283;-60
2022/01/12 07:54:06;;;;;;;;;;;3.30;99.90;;;;;;5060444;28;19913;-60
2022/01/12 07:56:34;;;;;;;;;;;3.30;99.90;;;;;;5044994;28;20524;-60
2022/01/12 07:59:00;;;;;;;;;;;3.20;99.90;;;;;;5057463;28;19923;-59
2022/01/12 08:01:25;;;;;;;;;;;3.40;99.90;;;;;;5056058;28;20647;-60
2022/01/12 08:03:51;;;;;;;;;;;3.70;99.90;;;;;;5060197;28;19920;-59
2022/01/12 08:06:16;;;;;;;;;;;3.70;99.90;;;;;;5060533;28;20399;-61
2022/01/12 08:08:42;;;;;;;;;;;3.40;99.90;;;;;;5059670;28;19919;-60
2022/01/12 08:11:08;;;;;;;;;;;3.30;99.90;;;;;;5057511;28;20337;-60
2022/01/12 08:13:33;;;;;;;;;;;3.10;99.90;;;;;;5053671;28;19959;-60
2022/01/12 08:15:59;;;;;;;;;;;3.00;99.90;;;;;;5062907;28;20360;-61
2022/01/12 08:18:24;;;;;;;;;;;3.20;99.90;;;;;;5041555;28;19924;-61
2022/01/12 08:20:50;;;;;;;;;;;3.10;99.90;;;;;;5058975;28;19908;-62
2022/01/12 08:23:15;;;;;;;;;;;3.30;99.90;;;;;;5055855;28;19912;-61
2022/01/12 08:25:41;;;;;;;;;;;3.40;99.90;;;;;;5061555;28;19927;-62
2022/01/12 08:28:07;;;;;;;;;;;3.50;99.90;;;;;;5041406;28;19963;-61
2022/01/12 08:30:34;;;;;;;;;;;3.40;99.90;;;;;;5060517;28;19916;-62
2022/01/12 08:33:01;;;;;;;;;;;3.30;99.90;;;;;;5041875;28;19978;-61
2022/01/12 08:35:27;;;;;;;;;;;3.40;99.90;;;;;;5046073;28;19920;-61
2022/01/12 08:37:53;;;;;;;;;;;3.50;99.90;;;;;;5064218;28;20046;-61
2022/01/12 08:40:19;;;;;;;;;;;3.70;99.90;;;;;;5058300;28;20015;-62
2022/01/12 08:42:44;;;;;;;;;;;3.70;99.90;;;;;;5059643;28;20359;-61
2022/01/12 08:45:10;;;;;;;;;;;3.50;99.90;;;;;;5041064;28;20497;-62
2022/01/12 08:47:36;;;;;;;;;;;3.50;99.90;;;;;;5054380;28;20601;-61
2022/01/12 08:50:02;;;;;;;;;;;3.40;99.90;;;;;;5056426;28;19917;-61
2022/01/12 08:52:30;;;;;;;;;;;3.50;99.90;;;;;;5037752;28;19916;-61
2022/01/12 08:54:55;;;;;;;;;;;3.60;99.90;;;;;;5041261;28;20321;-61
2022/01/12 08:57:21;;;;;;;;;;;3.50;99.90;;;;;;5055477;28;19959;-61
2022/01/12 08:59:47;;;;;;;;;;;3.40;99.90;;;;;;5058350;28;19924;-60
2022/01/12 09:02:14;;;;;;;;;;;3.50;99.90;;;;;;5054434;28;20003;-61
2022/01/12 09:04:43;;;;;;;;;;;3.50;99.90;;;;;;5053200;28;20349;-61
2022/01/12 09:07:09;;;;;;;;;;;3.50;99.90;;;;;;5060644;28;20018;-61
2022/01/12 09:09:35;;;;;;;;;;;3.70;99.90;;;;;;5057982;28;19908;-61
2022/01/12 09:12:01;;;;;;;;;;;3.70;99.90;;;;;;5056088;28;20441;-60
2022/01/12 09:14:27;;;;;;;;;;;3.50;99.90;;;;;;5057848;28;20448;-61
2022/01/12 09:16:56;;;;;;;;;;;3.70;99.90;;;;;;5059568;28;19920;-62
2022/01/12 09:19:25;;;;;;;;;;;3.60;99.90;;;;;;5057473;28;19924;-61
2022/01/12 09:21:51;;;;;;;;;;;3.70;99.90;;;;;;5057538;28;19963;-62
2022/01/12 09:24:17;;;;;;;;;;;3.90;99.90;;;;;;5047382;28;19917;-62
2022/01/12 09:26:42;;;;;;;;;;;3.80;99.90;;;;;;5059505;28;20148;-61
2022/01/12 09:29:08;;;;;;;;;;;3.70;99.90;;;;;;5057558;28;19916;-61
2022/01/12 09:31:33;;;;;;;;;;;3.50;99.90;;;;;;5053670;28;20466;-61
2022/01/12 09:33:59;;;;;;;;;;;3.50;99.90;;;;;;5061961;28;19916;-62
2022/01/12 09:36:24;;;;;;;;;;;3.70;99.90;;;;;;5045993;28;19973;-61
2022/01/12 09:38:50;;;;;;;;;;;3.80;99.90;;;;;;5038516;28;19923;-61
2022/01/12 09:41:16;;;;;;;;;;;3.70;99.90;;;;;;5056282;28;19996;-61
2022/01/12 09:43:42;;;;;;;;;;;3.60;99.90;;;;;;5051190;28;20014;-61
2022/01/12 09:46:12;;;;;;;;;;;3.60;99.90;;;;;;5056833;28;20355;-61
2022/01/12 09:48:37;;;;;;;;;;;3.80;99.90;;;;;;5056345;28;20495;-60
2022/01/12 09:51:07;;;;;;;;;;;3.70;99.90;;;;;;5057653;28;19959;-60
2022/01/12 09:53:33;;;;;;;;;;;3.70;99.90;;;;;;5057864;28;20372;-61
2022/01/12 09:55:59;;;;;;;;;;;3.80;99.90;;;;;;5058848;28;20179;-61
2022/01/12 09:58:30;;;;;;;;;;;3.80;99.90;;;;;;5059180;28;19928;-61
2022/01/12 10:00:57;;;;;;;;;;;3.80;99.90;;;;;;5059912;28;20320;-60
2022/01/12 10:03:23;;;;;;;;;;;4.00;99.90;;;;;;5059056;28;20011;-61
2022/01/12 10:05:49;;;;;;;;;;;4.20;99.90;;;;;;5038836;28;19943;-61
2022/01/12 10:08:15;;;;;;;;;;;4.20;99.90;;;;;;5052575;28;19912;-61
2022/01/12 10:10:48;;;;;;;;;;;4.10;99.90;;;;;;5059720;28;19916;-62
2022/01/12 10:13:23;;;;;;;;;;;4.20;99.90;;;;;;5042503;28;19916;-61
2022/01/12 10:15:52;;;;;;;;;;;4.30;99.90;;;;;;5045538;28;20555;-61
2022/01/12 10:18:18;;;;;;;;;;;4.40;99.90;;;;;;5050759;28;19923;-61
2022/01/12 10:20:44;;;;;;;;;;;4.40;99.90;;;;;;5037968;28;19917;-61
2022/01/12 10:23:12;;;;;;;;;;;4.30;99.90;;;;;;5058450;28;19922;-60
2022/01/12 10:25:39;;;;;;;;;;;4.30;99.90;;;;;;5059130;28;19917;-61
2022/01/12 10:28:35;;;;;;;;;;;4.40;99.90;;;;;;5057594;28;19913;-60
2022/01/12 10:31:02;;;;;;;;;;;4.30;99.90;;;;;;5032158;28;19952;-60
2022/01/12 10:33:29;;;;;;;;;;;4.10;99.90;;;;;;5058064;28;19913;-60
2022/01/12 10:35:56;;;;;;;;;;;4.10;99.90;;;;;;5058838;28;19924;-60
2022/01/12 10:38:22;;;;;;;;;;;3.90;99.90;;;;;;5056004;28;19912;-60
2022/01/12 10:40:50;;;;;;;;;;;4.10;99.90;;;;;;5059018;28;20379;-60
2022/01/12 10:43:34;;;;;;;;;;;4.10;99.90;;;;;;5059311;28;19916;-61
2022/01/12 10:46:01;;;;;;;;;;;4.10;99.90;;;;;;5057454;28;19924;-61
2022/01/12 10:48:43;;;;;;;;;;;4.10;99.90;;;;;;5059642;28;19927;-60
2022/01/12 10:51:09;;;;;;;;;;;3.70;99.90;;;;;;5058164;28;20427;-61
2022/01/12 10:53:36;;;;;;;;;;;3.70;99.90;;;;;;5061140;28;19916;-61
2022/01/12 10:56:08;;;;;;;;;;;3.90;99.90;;;;;;5064207;28;20324;-60
2022/01/12 10:58:36;;;;;;;;;;;4.10;99.90;;;;;;5058513;28;19916;-60
2022/01/12 11:01:02;;;;;;;;;;;4.10;99.90;;;;;;5065028;28;20359;-61
2022/01/12 11:03:28;;;;;;;;;;;4.20;99.90;;;;;;5060726;28;20372;-60
2022/01/12 11:05:55;;;;;;;;;;;4.20;99.90;;;;;;5062516;28;19909;-61
2022/01/12 11:08:23;;;;;;;;;;;4.30;99.90;;;;;;5060524;28;20295;-61
2022/01/12 11:10:49;;;;;;;;;;;4.30;99.90;;;;;;5057274;28;19918;-60
2022/01/12 11:13:14;;;;;;;;;;;6.10;99.90;;;;;;5059045;28;19916;-61
2022/01/12 11:15:40;;;;;;;;;;;4.30;99.90;;;;;;5060590;28;20481;-60
2022/01/12 11:18:07;;;;;;;;;;;4.30;99.90;;;;;;5062750;28;20331;-60
2022/01/12 11:20:33;;;;;;;;;;;4.30;99.90;;;;;;5060823;28;20342;-61
2022/01/12 11:22:59;;;;;;;;;;;4.40;99.90;;;;;;5059324;28;19996;-61
2022/01/12 11:25:28;;;;;;;;;;;4.20;99.90;;;;;;5060146;28;20008;-61
2022/01/12 11:28:05;;;;;;;;;;;4.00;99.90;;;;;;5060379;28;19960;-61
2022/01/12 11:30:33;;;;;;;;;;;4.10;99.90;;;;;;5040742;28;19917;-61
2022/01/12 11:33:00;;;;;;;;;;;4.00;99.90;;;;;;5058282;28;19936;-61
2022/01/12 11:35:27;;;;;;;;;;;4.00;99.90;;;;;;5063243;28;19916;-60
2022/01/12 11:37:57;;;;;;;;;;;4.10;99.90;;;;;;5060179;28;20275;-61
2022/01/12 11:40:43;;;;;;;;;;;4.40;99.90;;;;;;5064346;28;19917;-61
2022/01/12 11:43:29;;;;;;;;;;;4.20;99.90;;;;;;5041594;28;19923;-61
2022/01/12 11:47:04;;;;;;;76.05;33.75;;;;;;;;;;5044564;28;20416;-61
2022/01/12 11:49:53;;;;;;;87.45;36.85;;;;;;;;;;5040560;28;20020;-61
2022/01/12 11:52:23;;;;;;;83.45;36.47;;;;;;;;;;5039394;28;20045;-60
2022/01/12 11:54:52;;;;;;;76.15;36.65;;;;;;;;;;5037525;28;20039;-60
2022/01/12 11:57:21;;;;;;;80.05;37.05;;;;;;;;;;5046235;28;20052;-61
2022/01/12 11:59:58;;;;;;;80.57;36.28;;;;;;;;;;5039596;28;20017;-61
2022/01/12 12:02:32;;;;;;;81.72;36.30;;;;;;;;;;5044887;28;20013;-61
2022/01/12 12:04:59;;;;;;;82.18;37.22;;;;;;;;;;5047814;28;21622;-61
2022/01/12 12:07:26;;;;;;;97.70;36.70;;;;;;;;;;5042763;28;20025;-61
2022/01/12 12:09:53;;;;;;;83.90;36.13;;;;;;;;;;5039594;28;20025;-61
2022/01/12 12:12:28;;;;;;;78.90;35.85;;;;;;;;;;5041163;28;20022;-61
2022/01/12 12:14:55;;;;;;;86.22;36.00;;;;;;;;;;5038619;28;20036;-61
2022/01/12 12:17:25;;;;;;;79.28;34.50;;;;;;;;;;5038282;28;20060;-61
2022/01/12 12:19:51;;;;;;;80.93;36.92;;;;;;;;;;5042492;28;20483;-61
2022/01/12 12:22:22;;;;;;;74.10;34.40;;;;;;;;;;5039567;28;20024;-61
2022/01/12 12:24:59;;;;;;;73.93;33.67;;;;;;;;;;5049682;28;20025;-60
2022/01/12 12:27:27;;;;;;;82.28;36.00;;;;;;;;;;5033714;28;20021;-61
2022/01/12 12:29:54;;;;;;;78.03;37.05;;;;;;;;;;5045551;28;20036;-60
2022/01/12 12:32:21;;;;;;;83.57;36.25;;;;;;;;;;5036794;28;20028;-60
2022/01/12 12:34:48;;;;;;;84.90;37.85;;;;;;;;;;5045075;28;20449;-61
2022/01/12 12:37:15;;;;;;;86.80;37.42;;;;;;;;;;5040949;28;20549;-61
2022/01/12 12:39:43;;;;;;;82.78;35.70;;;;;;;;;;5042816;28;20027;-62
2022/01/12 12:42:19;;;;;;;78.07;36.47;;;;;;;;;;5035475;28;20030;-62
2022/01/12 12:44:47;;;;;;;76.18;34.45;;;;;;;;;;5030968;28;20075;-61
2022/01/12 12:47:19;;;;;;;78.93;36.25;;;;;;;;;;5035221;28;20067;-61
2022/01/12 12:49:45;;;;;;;76.90;35.20;;;;;;;;;;5041159;28;20507;-61
2022/01/12 12:52:11;;;;;;;70.97;34.25;;;;;;;;;;5040201;28;20060;-60
2022/01/12 12:54:41;;;;;;;76.18;35.05;;;;;;;;;;5038286;28;20025;-61
2022/01/12 12:57:09;;;;;;;78.05;34.63;;;;;;;;;;5037182;28;20024;-61
2022/01/12 12:59:35;;;;;;;82.15;35.38;;;;;;;;;;5029280;28;20507;-61
2022/01/12 13:02:01;;;;;;;71.63;33.33;;;;;;;;;;5032565;28;20022;-61
2022/01/12 13:04:27;;;;;;;74.18;34.33;;;;;;;;;;5015777;28;20397;-61
2022/01/12 13:06:54;;;;;;;74.18;33.97;;;;;;;;;;5028123;28;20103;-61
2022/01/12 13:09:20;;;;;;;74.63;35.33;;;;;;;;;;5025984;28;20010;-61
2022/01/12 13:11:49;;;;;;;74.05;35.70;;;;;;;;;;5033094;28;20028;-61
2022/01/12 13:14:15;;;;;;;78.50;35.42;;;;;;;;;;5029269;28;20037;-61
2022/01/12 13:16:46;;;;;;;70.13;33.97;;;;;;;;;;5022621;28;20108;-61
2022/01/12 13:19:23;;;;;;;74.78;35.38;;;;;;;;;;5027710;28;20495;-61
2022/01/12 13:21:50;;;;;;;75.78;34.05;;;;;;;;;;5031704;28;20083;-61
2022/01/12 13:24:16;;;;;;;78.75;35.25;;;;;;;;;;5025900;28;20029;-61
2022/01/12 13:26:42;;;;;;;76.43;34.42;;;;;;;;;;5025179;28;20034;-61
2022/01/12 13:29:11;;;;;;;66.38;32.65;;;;;;;;;;5030995;28;20037;-60
2022/01/12 13:31:39;;;;;;;69.97;33.08;;;;;;;;;;5026786;28;20041;-61
2022/01/12 13:34:05;;;;;;;62.65;31.17;;;;;;;;;;5028604;28;20048;-62
2022/01/12 13:36:33;;;;;;;66.38;32.55;;;;;;;;;;5027412;28;20014;-61
2022/01/12 13:39:05;;;;;;;74.93;33.60;;;;;;;;;;5019662;28;20018;-61
2022/01/12 13:41:32;;;;;;;71.93;34.08;;;;;;;;;;5014986;28;20036;-62
2022/01/12 13:43:58;;;;;;;72.18;34.75;;;;;;;;;;5025678;28;20029;-61
2022/01/12 13:46:35;;;;;;;72.95;34.28;;;;;;;;;;5023445;28;20021;-61
2022/01/12 13:49:10;;;;;;;66.28;33.00;;;;;;;;;;5026335;28;20600;-61
2022/01/12 13:51:37;;;;;;;73.22;32.40;;;;;;;;;;5022091;28;20385;-61
2022/01/12 13:54:13;;;;;;;74.45;34.67;;;;;;;;;;5034755;28;20022;-62
2022/01/12 13:56:41;;;;;;;74.32;35.60;;;;;;;;;;5019927;28;20113;-61
2022/01/12 13:59:08;;;;;;;75.60;35.60;;;;;;;;;;5024658;28;20022;-61
2022/01/12 14:01:35;;;;;;;79.47;35.17;;;;;;;;;;5016988;28;20068;-62
2022/01/12 14:04:14;;;;;;;71.93;34.13;;;;;;;;;;5029612;28;20025;-61
2022/01/12 14:06:41;;;;;;;76.30;37.88;;;;;;;;;;5023862;28;20644;-61
2022/01/12 14:11:53;;;;;;;65.88;32.88;;;;;;;;;;5022414;28;20028;-60
2022/01/12 14:14:19;;;;;;;75.55;33.78;;;;;;;;;;5019533;28;20101;-61
2022/01/12 14:16:46;;;;;;;67.88;32.28;;;;;;;;;;5023875;28;20041;-61
2022/01/12 14:19:12;;;;;;;70.20;32.95;;;;;;;;;;5031377;28;20439;-60
2022/01/12 14:21:40;;;;;;;73.13;33.17;;;;;;;;;;5034206;28;20033;-62
2022/01/12 14:24:08;;;;;;;35.90;17.90;;;;;;;;;;5032852;28;20112;-61
2022/01/12 14:26:38;;;;;;;43.20;20.23;;;;;;;;;;5024913;28;20065;-61
2022/01/12 14:29:04;;;;;;;37.13;17.83;;;;;;;;;;5028658;28;20651;-60
2022/01/12 14:31:30;;;;;;;35.38;18.30;;;;;;;;;;5026556;28;20034;-61
2022/01/12 14:33:57;;;;;;;36.67;17.60;;;;;;;;;;5017131;28;20134;-61
2022/01/12 14:36:24;;;;;;;47.40;22.98;;;;;;;;;;5020419;28;20520;-62
2022/01/12 14:38:50;;;;;;;55.63;25.10;;;;;;;;;;5030565;28;20041;-62
2022/01/12 14:41:16;;;;;;;59.03;29.75;;;;;;;;;;5020786;28;20026;-61
2022/01/12 14:43:42;;;;;;;53.83;26.55;;;;;;;;;;5020776;28;20044;-60
2022/01/12 14:46:08;;;;;;;48.90;24.15;;;;;;;;;;5023269;28;20032;-61
2022/01/12 14:48:34;;;;;;;46.55;24.58;;;;;;;;;;5030997;28;20025;-62
2022/01/12 14:51:01;;;;;;;45.38;21.92;;;;;;;;;;5026563;28;20221;-61
2022/01/12 14:53:27;;;;;;;43.15;21.50;;;;;;;;;;5027771;28;20039;-61
2022/01/12 14:55:54;;;;;;;42.08;21.15;;;;;;;;;;5016986;28;20489;-61
2022/01/12 14:58:20;;;;;;;40.47;20.17;;;;;;;;;;5029576;28;20141;-61
2022/01/12 15:00:47;;;;;;;39.78;19.77;;;;;;;;;;5025078;28;20026;-61
2022/01/12 15:03:14;;;;;;;37.45;18.67;;;;;;;;;;5024297;28;20025;-62
2022/01/12 15:05:41;;;;;;;38.83;19.67;;;;;;;;;;5017501;28;20456;-61
2022/01/12 15:08:07;;;;;;;35.75;18.67;;;;;;;;;;5023448;28;20357;-61
2022/01/12 15:10:33;;;;;;;38.95;19.55;;;;;;;;;;5022711;28;20029;-61
2022/01/12 15:13:19;;;;;;;39.58;20.20;;;;;;;;;;5019371;28;20096;-62
2022/01/12 15:15:48;;;;;;;37.67;19.92;;;;;;;;;;5017786;28;20232;-61
2022/01/12 15:18:14;;;;;;;42.55;20.95;;;;;;;;;;5025497;28;20029;-61
2022/01/12 15:20:41;;;;;;;43.92;21.45;;;;;;;;;;5018717;28;21120;-62
2022/01/12 15:23:07;;;;;;;39.85;20.15;;;;;;;;;;5025549;28;20028;-61
2022/01/12 15:25:33;;;;;;;45.30;21.13;;;;;;;;;;5024953;28;20033;-62
2022/01/12 15:28:06;;;;;;;40.20;18.92;;;;;;;;;;5022323;28;20009;-61
2022/01/12 15:30:32;;;;;;;40.00;19.80;;;;;;;;;;5017180;28;20030;-61
2022/01/12 15:32:58;;;;;;;42.30;20.13;;;;;;;;;;5017216;28;20036;-60
2022/01/12 15:35:24;;;;;;;40.53;21.50;;;;;;;;;;5019525;28;20104;-62
2022/01/12 15:37:50;;;;;;;43.75;21.27;;;;;;;;;;5022827;28;20135;-61
2022/01/12 15:40:16;;;;;;;41.30;20.42;;;;;;;;;;5021544;28;20017;-62
2022/01/12 15:42:43;;;;;;;40.20;19.85;;;;;;;;;;5017456;28;20033;-61
2022/01/12 15:45:09;;;;;;;43.90;21.42;;;;;;;;;;5020527;28;20055;-61
2022/01/12 15:47:35;;;;;;;43.15;20.10;;;;;;;;;;5022042;28;20033;-61
2022/01/12 15:50:02;;;;;;;40.63;20.27;;;;;;;;;;5019599;28;20024;-61
2022/01/12 15:52:28;;;;;;;40.67;19.25;;;;;;;;;;5022610;28;20067;-61
2022/01/12 15:54:54;;;;;;;36.05;19.13;;;;;;;;;;5018637;28;20032;-61
2022/01/12 15:57:20;;;;;;;37.97;18.30;;;;;;;;;;5019821;28;20032;-61
2022/01/12 15:59:47;;;;;;;36.88;18.73;;;;;;;;;;5028553;28;20032;-62
2022/01/12 16:02:13;;;;;;;36.60;18.17;;;;;;;;;;5017402;28;20021;-61
2022/01/12 16:04:39;;;;;;;38.72;18.92;;;;;;;;;;5028892;28;20026;-61